sensor_id;sensor_type;location;lat;lon;timestamp;P1;durP1;ratioP1;P2;durP2;ratioP2
1370;SDS011;14306;49.942;11.570;2023-08-07T00:00:10;0.90;;;0.70;;
1370;SDS011;14306;49.942;11.570;2023-08-07T00:02:38;0.60;;;0.53;;
1370;SDS011;14306;49.942;11.570;2023-08-07T00:05:06;1.80;;;1.00;;
1370;SDS011;14306;49.942;11.570;2023-08-07T00:07:35;0.70;;;0.70;;
1370;SDS011;14306;49.942;11.570;2023-08-07T00:10:03;0.50;;;0.50;;
1370;SDS011;14306;49.942;11.570;2023-08-07T00:12:33;0.77;;;0.77;;
1370;SDS011;14306;49.942;11.570;2023-08-07T00:15:01;0.87;;;0.60;;
1370;SDS011;14306;49.942;11.570;2023-08-07T00:17:29;0.60;;;0.60;;
1370;SDS011;14306;49.942;11.570;2023-08-07T00:19:57;0.70;;;0.60;;
1370;SDS011;14306;49.942;11.570;2023-08-07T00:22:26;1.07;;;0.60;;
1370;SDS011;14306;49.942;11.570;2023-08-07T00:24:54;0.83;;;0.70;;
1370;SDS011;14306;49.942;11.570;2023-08-07T00:27:21;0.53;;;0.50;;
1370;SDS011;14306;49.942;11.570;2023-08-07T00:29:51;0.60;;;0.57;;
1370;SDS011;14306;49.942;11.570;2023-08-07T00:32:19;0.70;;;0.60;;
1370;SDS011;14306;49.942;11.570;2023-08-07T00:34:47;1.60;;;0.60;;
1370;SDS011;14306;49.942;11.570;2023-08-07T00:37:15;0.50;;;0.50;;
1370;SDS011;14306;49.942;11.570;2023-08-07T00:39:43;0.50;;;0.50;;
1370;SDS011;14306;49.942;11.570;2023-08-07T00:42:10;1.07;;;0.60;;
1370;SDS011;14306;49.942;11.570;2023-08-07T00:44:39;1.13;;;0.60;;
1370;SDS011;14306;49.942;11.570;2023-08-07T00:47:08;3.03;;;0.50;;
1370;SDS011;14306;49.942;11.570;2023-08-07T00:49:36;1.00;;;0.80;;
1370;SDS011;14306;49.942;11.570;2023-08-07T00:52:05;0.60;;;0.50;;
1370;SDS011;14306;49.942;11.570;2023-08-07T00:54:34;0.50;;;0.50;;
1370;SDS011;14306;49.942;11.570;2023-08-07T00:57:04;1.03;;;0.80;;
1370;SDS011;14306;49.942;11.570;2023-08-07T00:59:37;1.73;;;0.60;;
1370;SDS011;14306;49.942;11.570;2023-08-07T01:02:06;0.60;;;0.60;;
1370;SDS011;14306;49.942;11.570;2023-08-07T01:04:35;0.97;;;0.70;;
1370;SDS011;14306;49.942;11.570;2023-08-07T01:07:04;6.50;;;0.50;;
1370;SDS011;14306;49.942;11.570;2023-08-07T01:09:32;1.90;;;0.50;;
1370;SDS011;14306;49.942;11.570;2023-08-07T01:12:02;0.50;;;0.50;;
1370;SDS011;14306;49.942;11.570;2023-08-07T01:14:37;0.50;;;0.50;;
1370;SDS011;14306;49.942;11.570;2023-08-07T01:17:13;0.50;;;0.50;;
1370;SDS011;14306;49.942;11.570;2023-08-07T01:19:45;0.50;;;0.50;;
1370;SDS011;14306;49.942;11.570;2023-08-07T01:22:15;1.23;;;0.70;;
1370;SDS011;14306;49.942;11.570;2023-08-07T01:24:45;2.87;;;0.57;;
1370;SDS011;14306;49.942;11.570;2023-08-07T01:27:24;0.50;;;0.50;;
1370;SDS011;14306;49.942;11.570;2023-08-07T01:30:09;1.70;;;0.70;;
1370;SDS011;14306;49.942;11.570;2023-08-07T01:32:44;0.70;;;0.60;;
1370;SDS011;14306;49.942;11.570;2023-08-07T01:35:17;0.50;;;0.40;;
1370;SDS011;14306;49.942;11.570;2023-08-07T01:37:53;0.50;;;0.50;;
1370;SDS011;14306;49.942;11.570;2023-08-07T01:40:23;1.17;;;0.50;;
1370;SDS011;14306;49.942;11.570;2023-08-07T01:42:51;1.53;;;0.90;;
1370;SDS011;14306;49.942;11.570;2023-08-07T01:45:23;0.83;;;0.50;;
1370;SDS011;14306;49.942;11.570;2023-08-07T01:47:51;0.60;;;0.40;;
1370;SDS011;14306;49.942;11.570;2023-08-07T01:50:20;0.50;;;0.50;;
1370;SDS011;14306;49.942;11.570;2023-08-07T01:52:50;1.33;;;0.50;;
1370;SDS011;14306;49.942;11.570;2023-08-07T01:59:01;0.50;;;0.40;;
1370;SDS011;14306;49.942;11.570;2023-08-07T02:01:30;0.50;;;0.50;;
1370;SDS011;14306;49.942;11.570;2023-08-07T02:03:57;0.50;;;0.50;;
1370;SDS011;14306;49.942;11.570;2023-08-07T02:06:25;1.90;;;0.50;;
1370;SDS011;14306;49.942;11.570;2023-08-07T02:08:54;0.50;;;0.50;;
1370;SDS011;14306;49.942;11.570;2023-08-07T02:11:22;0.90;;;0.50;;
1370;SDS011;14306;49.942;11.570;2023-08-07T02:13:50;0.53;;;0.50;;
1370;SDS011;14306;49.942;11.570;2023-08-07T02:16:19;0.40;;;0.40;;
1370;SDS011;14306;49.942;11.570;2023-08-07T02:18:47;0.60;;;0.50;;
1370;SDS011;14306;49.942;11.570;2023-08-07T02:21:15;0.40;;;0.40;;
1370;SDS011;14306;49.942;11.570;2023-08-07T02:23:43;0.60;;;0.50;;
1370;SDS011;14306;49.942;11.570;2023-08-07T02:26:11;1.20;;;0.70;;
1370;SDS011;14306;49.942;11.570;2023-08-07T02:28:39;0.60;;;0.53;;
1370;SDS011;14306;49.942;11.570;2023-08-07T02:31:07;0.70;;;0.60;;
1370;SDS011;14306;49.942;11.570;2023-08-07T02:33:36;0.70;;;0.70;;
1370;SDS011;14306;49.942;11.570;2023-08-07T02:36:04;0.63;;;0.63;;
1370;SDS011;14306;49.942;11.570;2023-08-07T02:38:32;0.60;;;0.60;;
1370;SDS011;14306;49.942;11.570;2023-08-07T02:41:00;0.67;;;0.67;;
1370;SDS011;14306;49.942;11.570;2023-08-07T02:43:28;0.87;;;0.60;;
1370;SDS011;14306;49.942;11.570;2023-08-07T02:45:59;1.07;;;0.67;;
1370;SDS011;14306;49.942;11.570;2023-08-07T02:48:28;0.60;;;0.60;;
1370;SDS011;14306;49.942;11.570;2023-08-07T02:50:57;0.60;;;0.60;;
1370;SDS011;14306;49.942;11.570;2023-08-07T02:53:26;0.60;;;0.60;;
1370;SDS011;14306;49.942;11.570;2023-08-07T02:55:53;0.80;;;0.70;;
1370;SDS011;14306;49.942;11.570;2023-08-07T02:58:21;1.23;;;0.50;;
1370;SDS011;14306;49.942;11.570;2023-08-07T03:00:49;0.60;;;0.60;;
1370;SDS011;14306;49.942;11.570;2023-08-07T03:03:17;0.87;;;0.70;;
1370;SDS011;14306;49.942;11.570;2023-08-07T03:05:48;0.83;;;0.70;;
1370;SDS011;14306;49.942;11.570;2023-08-07T03:08:19;2.40;;;0.70;;
1370;SDS011;14306;49.942;11.570;2023-08-07T03:10:50;0.50;;;0.50;;
1370;SDS011;14306;49.942;11.570;2023-08-07T03:13:19;1.80;;;0.50;;
1370;SDS011;14306;49.942;11.570;2023-08-07T03:15:47;1.33;;;0.53;;
1370;SDS011;14306;49.942;11.570;2023-08-07T03:18:16;0.70;;;0.70;;
1370;SDS011;14306;49.942;11.570;2023-08-07T03:20:45;0.70;;;0.60;;
1370;SDS011;14306;49.942;11.570;2023-08-07T03:23:12;0.90;;;0.70;;
1370;SDS011;14306;49.942;11.570;2023-08-07T03:25:42;0.60;;;0.60;;
1370;SDS011;14306;49.942;11.570;2023-08-07T03:28:10;0.80;;;0.60;;
1370;SDS011;14306;49.942;11.570;2023-08-07T03:30:40;0.70;;;0.60;;
1370;SDS011;14306;49.942;11.570;2023-08-07T03:33:08;0.60;;;0.60;;
1370;SDS011;14306;49.942;11.570;2023-08-07T03:35:36;1.73;;;0.60;;
1370;SDS011;14306;49.942;11.570;2023-08-07T03:38:05;1.63;;;0.73;;
1370;SDS011;14306;49.942;11.570;2023-08-07T03:40:33;1.10;;;0.70;;
1370;SDS011;14306;49.942;11.570;2023-08-07T03:43:02;0.67;;;0.50;;
1370;SDS011;14306;49.942;11.570;2023-08-07T03:45:30;0.83;;;0.80;;
1370;SDS011;14306;49.942;11.570;2023-08-07T03:47:58;0.50;;;0.50;;
1370;SDS011;14306;49.942;11.570;2023-08-07T03:50:27;0.80;;;0.60;;
1370;SDS011;14306;49.942;11.570;2023-08-07T03:52:57;1.20;;;0.60;;
1370;SDS011;14306;49.942;11.570;2023-08-07T03:55:24;1.50;;;0.60;;
1370;SDS011;14306;49.942;11.570;2023-08-07T03:57:52;2.03;;;0.67;;
1370;SDS011;14306;49.942;11.570;2023-08-07T04:00:22;1.70;;;0.57;;
1370;SDS011;14306;49.942;11.570;2023-08-07T04:02:49;1.27;;;0.50;;
1370;SDS011;14306;49.942;11.570;2023-08-07T04:05:18;7.03;;;0.70;;
1370;SDS011;14306;49.942;11.570;2023-08-07T04:07:45;0.80;;;0.70;;
1370;SDS011;14306;49.942;11.570;2023-08-07T04:10:13;1.23;;;0.60;;
1370;SDS011;14306;49.942;11.570;2023-08-07T04:12:42;1.07;;;1.00;;
1370;SDS011;14306;49.942;11.570;2023-08-07T04:15:10;0.63;;;0.53;;
1370;SDS011;14306;49.942;11.570;2023-08-07T04:17:39;0.50;;;0.50;;
1370;SDS011;14306;49.942;11.570;2023-08-07T04:20:08;0.63;;;0.60;;
1370;SDS011;14306;49.942;11.570;2023-08-07T04:22:36;0.70;;;0.70;;
1370;SDS011;14306;49.942;11.570;2023-08-07T04:25:06;0.70;;;0.60;;
1370;SDS011;14306;49.942;11.570;2023-08-07T04:27:35;0.60;;;0.50;;
1370;SDS011;14306;49.942;11.570;2023-08-07T04:30:03;0.57;;;0.50;;
1370;SDS011;14306;49.942;11.570;2023-08-07T04:32:32;1.60;;;0.60;;
1370;SDS011;14306;49.942;11.570;2023-08-07T04:35:01;1.93;;;0.50;;
1370;SDS011;14306;49.942;11.570;2023-08-07T04:37:30;1.43;;;0.60;;
1370;SDS011;14306;49.942;11.570;2023-08-07T04:39:57;3.87;;;0.60;;
1370;SDS011;14306;49.942;11.570;2023-08-07T04:42:27;0.50;;;0.50;;
1370;SDS011;14306;49.942;11.570;2023-08-07T04:44:55;0.60;;;0.60;;
1370;SDS011;14306;49.942;11.570;2023-08-07T04:47:22;0.50;;;0.50;;
1370;SDS011;14306;49.942;11.570;2023-08-07T04:49:51;0.70;;;0.60;;
1370;SDS011;14306;49.942;11.570;2023-08-07T04:52:21;0.90;;;0.60;;
1370;SDS011;14306;49.942;11.570;2023-08-07T04:54:52;1.90;;;0.50;;
1370;SDS011;14306;49.942;11.570;2023-08-07T04:57:20;3.07;;;0.70;;
1370;SDS011;14306;49.942;11.570;2023-08-07T04:59:48;0.93;;;0.70;;
1370;SDS011;14306;49.942;11.570;2023-08-07T05:02:16;0.60;;;0.50;;
1370;SDS011;14306;49.942;11.570;2023-08-07T05:04:45;0.87;;;0.70;;
1370;SDS011;14306;49.942;11.570;2023-08-07T05:07:13;0.83;;;0.60;;
1370;SDS011;14306;49.942;11.570;2023-08-07T05:09:42;1.33;;;0.60;;
1370;SDS011;14306;49.942;11.570;2023-08-07T05:12:10;0.60;;;0.57;;
1370;SDS011;14306;49.942;11.570;2023-08-07T05:14:38;0.60;;;0.60;;
1370;SDS011;14306;49.942;11.570;2023-08-07T05:17:06;0.80;;;0.60;;
1370;SDS011;14306;49.942;11.570;2023-08-07T05:19:34;1.27;;;0.60;;
1370;SDS011;14306;49.942;11.570;2023-08-07T05:22:02;2.23;;;0.60;;
1370;SDS011;14306;49.942;11.570;2023-08-07T05:24:30;2.67;;;0.70;;
1370;SDS011;14306;49.942;11.570;2023-08-07T05:27:07;0.63;;;0.53;;
1370;SDS011;14306;49.942;11.570;2023-08-07T05:29:36;0.60;;;0.60;;
1370;SDS011;14306;49.942;11.570;2023-08-07T05:32:10;0.60;;;0.60;;
1370;SDS011;14306;49.942;11.570;2023-08-07T05:34:38;1.27;;;0.60;;
1370;SDS011;14306;49.942;11.570;2023-08-07T05:37:06;3.70;;;0.70;;
1370;SDS011;14306;49.942;11.570;2023-08-07T05:39:35;1.00;;;0.60;;
1370;SDS011;14306;49.942;11.570;2023-08-07T05:42:03;3.70;;;0.70;;
1370;SDS011;14306;49.942;11.570;2023-08-07T05:44:35;0.77;;;0.70;;
1370;SDS011;14306;49.942;11.570;2023-08-07T05:47:04;2.00;;;0.70;;
1370;SDS011;14306;49.942;11.570;2023-08-07T05:49:32;2.00;;;0.80;;
1370;SDS011;14306;49.942;11.570;2023-08-07T05:52:00;1.63;;;0.70;;
1370;SDS011;14306;49.942;11.570;2023-08-07T05:54:29;0.97;;;0.53;;
1370;SDS011;14306;49.942;11.570;2023-08-07T05:56:56;0.90;;;0.60;;
1370;SDS011;14306;49.942;11.570;2023-08-07T05:59:24;1.63;;;0.70;;
1370;SDS011;14306;49.942;11.570;2023-08-07T06:01:54;4.43;;;0.80;;
1370;SDS011;14306;49.942;11.570;2023-08-07T06:04:25;1.00;;;0.70;;
1370;SDS011;14306;49.942;11.570;2023-08-07T06:06:53;1.83;;;0.73;;
1370;SDS011;14306;49.942;11.570;2023-08-07T06:09:21;4.03;;;0.70;;
1370;SDS011;14306;49.942;11.570;2023-08-07T06:11:49;1.13;;;0.60;;
1370;SDS011;14306;49.942;11.570;2023-08-07T06:14:17;0.70;;;0.60;;
1370;SDS011;14306;49.942;11.570;2023-08-07T06:16:45;3.20;;;0.83;;
1370;SDS011;14306;49.942;11.570;2023-08-07T06:19:14;1.23;;;0.60;;
1370;SDS011;14306;49.942;11.570;2023-08-07T06:21:57;0.97;;;0.70;;
1370;SDS011;14306;49.942;11.570;2023-08-07T06:24:25;4.40;;;0.70;;
1370;SDS011;14306;49.942;11.570;2023-08-07T06:26:53;2.33;;;0.97;;
1370;SDS011;14306;49.942;11.570;2023-08-07T06:29:21;0.70;;;0.60;;
1370;SDS011;14306;49.942;11.570;2023-08-07T06:31:49;2.93;;;0.90;;
1370;SDS011;14306;49.942;11.570;2023-08-07T06:34:19;1.20;;;0.60;;
1370;SDS011;14306;49.942;11.570;2023-08-07T06:36:47;0.73;;;0.53;;
1370;SDS011;14306;49.942;11.570;2023-08-07T06:39:15;0.80;;;0.70;;
1370;SDS011;14306;49.942;11.570;2023-08-07T06:41:43;3.60;;;0.50;;
1370;SDS011;14306;49.942;11.570;2023-08-07T06:44:11;0.97;;;0.70;;
1370;SDS011;14306;49.942;11.570;2023-08-07T06:46:39;2.47;;;0.67;;
1370;SDS011;14306;49.942;11.570;2023-08-07T06:49:07;1.10;;;0.80;;
1370;SDS011;14306;49.942;11.570;2023-08-07T06:51:36;1.30;;;0.80;;
1370;SDS011;14306;49.942;11.570;2023-08-07T06:54:04;0.70;;;0.70;;
1370;SDS011;14306;49.942;11.570;2023-08-07T06:56:33;1.37;;;0.70;;
1370;SDS011;14306;49.942;11.570;2023-08-07T06:59:01;1.90;;;0.70;;
1370;SDS011;14306;49.942;11.570;2023-08-07T07:01:28;0.80;;;0.60;;
1370;SDS011;14306;49.942;11.570;2023-08-07T07:03:57;1.80;;;0.73;;
1370;SDS011;14306;49.942;11.570;2023-08-07T07:06:25;2.67;;;0.73;;
1370;SDS011;14306;49.942;11.570;2023-08-07T07:08:54;0.80;;;0.80;;
1370;SDS011;14306;49.942;11.570;2023-08-07T07:11:22;1.27;;;0.60;;
1370;SDS011;14306;49.942;11.570;2023-08-07T07:13:51;2.83;;;0.70;;
1370;SDS011;14306;49.942;11.570;2023-08-07T07:16:19;1.37;;;0.70;;
1370;SDS011;14306;49.942;11.570;2023-08-07T07:18:49;1.47;;;1.03;;
1370;SDS011;14306;49.942;11.570;2023-08-07T07:21:17;0.60;;;0.60;;
1370;SDS011;14306;49.942;11.570;2023-08-07T07:23:45;2.53;;;0.80;;
1370;SDS011;14306;49.942;11.570;2023-08-07T07:26:14;0.70;;;0.60;;
1370;SDS011;14306;49.942;11.570;2023-08-07T07:28:42;1.20;;;0.73;;
1370;SDS011;14306;49.942;11.570;2023-08-07T07:31:10;1.23;;;0.90;;
1370;SDS011;14306;49.942;11.570;2023-08-07T07:33:39;0.80;;;0.70;;
1370;SDS011;14306;49.942;11.570;2023-08-07T07:36:12;1.37;;;0.80;;
1370;SDS011;14306;49.942;11.570;2023-08-07T07:38:42;1.33;;;0.70;;
1370;SDS011;14306;49.942;11.570;2023-08-07T07:41:12;0.90;;;0.80;;
1370;SDS011;14306;49.942;11.570;2023-08-07T07:43:41;1.03;;;0.60;;
1370;SDS011;14306;49.942;11.570;2023-08-07T07:46:10;0.90;;;0.60;;
1370;SDS011;14306;49.942;11.570;2023-08-07T07:48:38;1.10;;;0.70;;
1370;SDS011;14306;49.942;11.570;2023-08-07T07:51:06;1.73;;;0.80;;
1370;SDS011;14306;49.942;11.570;2023-08-07T07:53:34;0.70;;;0.70;;
1370;SDS011;14306;49.942;11.570;2023-08-07T07:56:02;1.63;;;0.90;;
1370;SDS011;14306;49.942;11.570;2023-08-07T07:58:30;0.83;;;0.80;;
1370;SDS011;14306;49.942;11.570;2023-08-07T08:01:00;1.17;;;0.93;;
1370;SDS011;14306;49.942;11.570;2023-08-07T08:03:28;0.90;;;0.73;;
1370;SDS011;14306;49.942;11.570;2023-08-07T08:05:55;1.00;;;0.70;;
1370;SDS011;14306;49.942;11.570;2023-08-07T08:08:24;1.27;;;1.00;;
1370;SDS011;14306;49.942;11.570;2023-08-07T08:10:54;0.90;;;0.70;;
1370;SDS011;14306;49.942;11.570;2023-08-07T08:13:22;0.93;;;0.77;;
1370;SDS011;14306;49.942;11.570;2023-08-07T08:15:52;1.57;;;1.00;;
1370;SDS011;14306;49.942;11.570;2023-08-07T08:18:21;3.00;;;1.70;;
1370;SDS011;14306;49.942;11.570;2023-08-07T08:20:49;0.80;;;0.80;;
1370;SDS011;14306;49.942;11.570;2023-08-07T08:23:17;0.87;;;0.60;;
1370;SDS011;14306;49.942;11.570;2023-08-07T08:25:45;1.00;;;0.77;;
1370;SDS011;14306;49.942;11.570;2023-08-07T08:28:13;24.43;;;2.70;;
1370;SDS011;14306;49.942;11.570;2023-08-07T08:30:41;7.50;;;1.00;;
1370;SDS011;14306;49.942;11.570;2023-08-07T08:33:09;8.47;;;1.10;;
1370;SDS011;14306;49.942;11.570;2023-08-07T08:35:42;4.93;;;0.87;;
1370;SDS011;14306;49.942;11.570;2023-08-07T08:38:10;2.90;;;0.63;;
1370;SDS011;14306;49.942;11.570;2023-08-07T08:40:38;1.87;;;0.70;;
1370;SDS011;14306;49.942;11.570;2023-08-07T08:43:07;1.37;;;0.80;;
1370;SDS011;14306;49.942;11.570;2023-08-07T08:45:37;1.23;;;1.07;;
1370;SDS011;14306;49.942;11.570;2023-08-07T08:48:07;1.10;;;0.80;;
1370;SDS011;14306;49.942;11.570;2023-08-07T08:50:37;0.93;;;0.70;;
1370;SDS011;14306;49.942;11.570;2023-08-07T08:53:08;1.77;;;0.80;;
1370;SDS011;14306;49.942;11.570;2023-08-07T08:55:37;1.30;;;1.00;;
1370;SDS011;14306;49.942;11.570;2023-08-07T08:58:09;0.90;;;0.73;;
1370;SDS011;14306;49.942;11.570;2023-08-07T09:00:38;0.90;;;0.90;;
1370;SDS011;14306;49.942;11.570;2023-08-07T09:03:06;0.80;;;0.80;;
1370;SDS011;14306;49.942;11.570;2023-08-07T09:05:35;0.90;;;0.70;;
1370;SDS011;14306;49.942;11.570;2023-08-07T09:08:04;1.43;;;0.83;;
1370;SDS011;14306;49.942;11.570;2023-08-07T09:10:35;2.17;;;1.10;;
1370;SDS011;14306;49.942;11.570;2023-08-07T09:13:04;2.93;;;0.90;;
1370;SDS011;14306;49.942;11.570;2023-08-07T09:15:37;1.40;;;0.90;;
1370;SDS011;14306;49.942;11.570;2023-08-07T09:18:06;0.70;;;0.70;;
1370;SDS011;14306;49.942;11.570;2023-08-07T09:20:36;1.10;;;0.80;;
1370;SDS011;14306;49.942;11.570;2023-08-07T09:23:05;2.03;;;1.10;;
1370;SDS011;14306;49.942;11.570;2023-08-07T09:25:35;4.10;;;0.70;;
1370;SDS011;14306;49.942;11.570;2023-08-07T09:28:04;1.23;;;0.80;;
1370;SDS011;14306;49.942;11.570;2023-08-07T09:30:33;1.50;;;0.80;;
1370;SDS011;14306;49.942;11.570;2023-08-07T09:33:03;1.10;;;0.90;;
1370;SDS011;14306;49.942;11.570;2023-08-07T09:35:32;1.77;;;1.00;;
1370;SDS011;14306;49.942;11.570;2023-08-07T09:38:00;1.47;;;0.90;;
1370;SDS011;14306;49.942;11.570;2023-08-07T09:40:30;1.17;;;1.00;;
1370;SDS011;14306;49.942;11.570;2023-08-07T09:43:00;2.70;;;0.93;;
1370;SDS011;14306;49.942;11.570;2023-08-07T09:45:30;1.20;;;0.87;;
1370;SDS011;14306;49.942;11.570;2023-08-07T09:47:58;2.80;;;1.00;;
1370;SDS011;14306;49.942;11.570;2023-08-07T09:50:27;1.00;;;0.83;;
1370;SDS011;14306;49.942;11.570;2023-08-07T09:52:56;3.07;;;1.07;;
1370;SDS011;14306;49.942;11.570;2023-08-07T09:55:25;1.23;;;0.70;;
1370;SDS011;14306;49.942;11.570;2023-08-07T09:57:53;2.77;;;0.77;;
1370;SDS011;14306;49.942;11.570;2023-08-07T10:00:23;1.07;;;0.90;;
1370;SDS011;14306;49.942;11.570;2023-08-07T10:02:53;1.13;;;0.80;;
1370;SDS011;14306;49.942;11.570;2023-08-07T10:05:22;1.13;;;0.97;;
1370;SDS011;14306;49.942;11.570;2023-08-07T10:07:51;2.80;;;1.33;;
1370;SDS011;14306;49.942;11.570;2023-08-07T10:10:21;3.87;;;1.10;;
1370;SDS011;14306;49.942;11.570;2023-08-07T10:12:52;3.03;;;0.70;;
1370;SDS011;14306;49.942;11.570;2023-08-07T10:15:20;1.20;;;1.00;;
1370;SDS011;14306;49.942;11.570;2023-08-07T10:17:50;3.03;;;0.80;;
1370;SDS011;14306;49.942;11.570;2023-08-07T10:20:19;2.83;;;1.20;;
1370;SDS011;14306;49.942;11.570;2023-08-07T10:22:47;1.47;;;1.00;;
1370;SDS011;14306;49.942;11.570;2023-08-07T10:25:16;1.60;;;1.10;;
1370;SDS011;14306;49.942;11.570;2023-08-07T10:27:50;1.47;;;1.00;;
1370;SDS011;14306;49.942;11.570;2023-08-07T10:30:22;1.40;;;1.00;;
1370;SDS011;14306;49.942;11.570;2023-08-07T10:32:54;0.83;;;0.80;;
1370;SDS011;14306;49.942;11.570;2023-08-07T10:35:23;1.50;;;0.90;;
1370;SDS011;14306;49.942;11.570;2023-08-07T10:37:52;3.53;;;1.20;;
1370;SDS011;14306;49.942;11.570;2023-08-07T10:40:20;1.33;;;1.13;;
1370;SDS011;14306;49.942;11.570;2023-08-07T10:42:55;1.10;;;0.90;;
1370;SDS011;14306;49.942;11.570;2023-08-07T10:45:25;3.73;;;1.53;;
1370;SDS011;14306;49.942;11.570;2023-08-07T10:47:59;4.40;;;1.23;;
1370;SDS011;14306;49.942;11.570;2023-08-07T10:50:35;1.50;;;1.17;;
1370;SDS011;14306;49.942;11.570;2023-08-07T10:53:18;3.03;;;1.00;;
1370;SDS011;14306;49.942;11.570;2023-08-07T10:55:48;1.03;;;0.90;;
1370;SDS011;14306;49.942;11.570;2023-08-07T10:58:23;2.10;;;1.27;;
1370;SDS011;14306;49.942;11.570;2023-08-07T11:01:14;2.43;;;1.27;;
1370;SDS011;14306;49.942;11.570;2023-08-07T11:03:46;3.90;;;0.80;;
1370;SDS011;14306;49.942;11.570;2023-08-07T11:06:16;3.90;;;1.37;;
1370;SDS011;14306;49.942;11.570;2023-08-07T11:08:45;2.20;;;1.00;;
1370;SDS011;14306;49.942;11.570;2023-08-07T11:11:15;8.67;;;1.43;;
1370;SDS011;14306;49.942;11.570;2023-08-07T11:13:44;8.40;;;2.47;;
1370;SDS011;14306;49.942;11.570;2023-08-07T11:16:12;1.87;;;1.50;;
1370;SDS011;14306;49.942;11.570;2023-08-07T11:18:41;1.40;;;1.00;;
1370;SDS011;14306;49.942;11.570;2023-08-07T11:21:11;1.77;;;1.30;;
1370;SDS011;14306;49.942;11.570;2023-08-07T11:23:40;2.03;;;1.23;;
1370;SDS011;14306;49.942;11.570;2023-08-07T11:26:10;2.17;;;1.13;;
1370;SDS011;14306;49.942;11.570;2023-08-07T11:28:38;2.03;;;1.53;;
1370;SDS011;14306;49.942;11.570;2023-08-07T11:31:06;3.00;;;1.10;;
1370;SDS011;14306;49.942;11.570;2023-08-07T11:33:35;1.73;;;1.03;;
1370;SDS011;14306;49.942;11.570;2023-08-07T11:36:04;4.00;;;1.30;;
1370;SDS011;14306;49.942;11.570;2023-08-07T11:38:40;1.10;;;1.00;;
1370;SDS011;14306;49.942;11.570;2023-08-07T11:41:11;5.67;;;1.20;;
1370;SDS011;14306;49.942;11.570;2023-08-07T11:43:40;1.70;;;1.20;;
1370;SDS011;14306;49.942;11.570;2023-08-07T11:46:08;2.13;;;1.20;;
1370;SDS011;14306;49.942;11.570;2023-08-07T11:48:38;3.43;;;1.37;;
1370;SDS011;14306;49.942;11.570;2023-08-07T11:51:08;3.23;;;1.53;;
1370;SDS011;14306;49.942;11.570;2023-08-07T11:53:38;2.53;;;1.60;;
1370;SDS011;14306;49.942;11.570;2023-08-07T11:56:09;2.47;;;1.80;;
1370;SDS011;14306;49.942;11.570;2023-08-07T11:58:41;4.90;;;2.00;;
1370;SDS011;14306;49.942;11.570;2023-08-07T12:01:13;2.97;;;2.20;;
1370;SDS011;14306;49.942;11.570;2023-08-07T12:03:50;2.50;;;1.90;;
1370;SDS011;14306;49.942;11.570;2023-08-07T12:06:21;2.40;;;2.07;;
1370;SDS011;14306;49.942;11.570;2023-08-07T12:08:53;2.07;;;1.37;;
1370;SDS011;14306;49.942;11.570;2023-08-07T12:11:22;2.83;;;1.53;;
1370;SDS011;14306;49.942;11.570;2023-08-07T12:13:51;2.50;;;1.63;;
1370;SDS011;14306;49.942;11.570;2023-08-07T12:16:19;4.33;;;2.33;;
1370;SDS011;14306;49.942;11.570;2023-08-07T12:18:48;2.33;;;1.80;;
1370;SDS011;14306;49.942;11.570;2023-08-07T12:21:18;3.87;;;1.60;;
1370;SDS011;14306;49.942;11.570;2023-08-07T12:23:54;6.03;;;2.23;;
1370;SDS011;14306;49.942;11.570;2023-08-07T12:26:23;3.23;;;1.60;;
1370;SDS011;14306;49.942;11.570;2023-08-07T12:28:52;1.93;;;1.30;;
1370;SDS011;14306;49.942;11.570;2023-08-07T12:31:20;1.77;;;1.30;;
1370;SDS011;14306;49.942;11.570;2023-08-07T12:33:48;4.40;;;1.17;;
1370;SDS011;14306;49.942;11.570;2023-08-07T12:36:18;11.43;;;1.50;;
1370;SDS011;14306;49.942;11.570;2023-08-07T12:38:46;2.13;;;1.30;;
1370;SDS011;14306;49.942;11.570;2023-08-07T12:41:16;2.53;;;1.90;;
1370;SDS011;14306;49.942;11.570;2023-08-07T12:43:48;1.63;;;1.40;;
1370;SDS011;14306;49.942;11.570;2023-08-07T12:46:16;2.40;;;1.77;;
1370;SDS011;14306;49.942;11.570;2023-08-07T12:48:47;6.80;;;1.60;;
1370;SDS011;14306;49.942;11.570;2023-08-07T12:51:15;2.20;;;1.20;;
1370;SDS011;14306;49.942;11.570;2023-08-07T12:53:44;6.67;;;1.57;;
1370;SDS011;14306;49.942;11.570;2023-08-07T12:56:13;6.33;;;1.97;;
1370;SDS011;14306;49.942;11.570;2023-08-07T12:58:43;2.77;;;1.17;;
1370;SDS011;14306;49.942;11.570;2023-08-07T13:01:12;1.67;;;1.00;;
1370;SDS011;14306;49.942;11.570;2023-08-07T13:03:40;1.57;;;1.13;;
1370;SDS011;14306;49.942;11.570;2023-08-07T13:06:09;1.60;;;1.50;;
1370;SDS011;14306;49.942;11.570;2023-08-07T13:08:38;2.97;;;2.50;;
1370;SDS011;14306;49.942;11.570;2023-08-07T13:11:07;2.30;;;1.50;;
1370;SDS011;14306;49.942;11.570;2023-08-07T13:13:36;5.60;;;1.20;;
1370;SDS011;14306;49.942;11.570;2023-08-07T13:16:07;2.00;;;1.27;;
1370;SDS011;14306;49.942;11.570;2023-08-07T13:18:35;1.80;;;1.30;;
1370;SDS011;14306;49.942;11.570;2023-08-07T13:21:03;1.80;;;1.40;;
1370;SDS011;14306;49.942;11.570;2023-08-07T13:23:31;3.83;;;1.77;;
1370;SDS011;14306;49.942;11.570;2023-08-07T13:26:00;2.93;;;1.33;;
1370;SDS011;14306;49.942;11.570;2023-08-07T13:28:29;2.60;;;0.90;;
1370;SDS011;14306;49.942;11.570;2023-08-07T13:30:57;2.77;;;1.43;;
1370;SDS011;14306;49.942;11.570;2023-08-07T13:33:26;3.03;;;1.07;;
1370;SDS011;14306;49.942;11.570;2023-08-07T13:35:55;2.60;;;1.20;;
1370;SDS011;14306;49.942;11.570;2023-08-07T13:38:22;1.43;;;1.17;;
1370;SDS011;14306;49.942;11.570;2023-08-07T13:40:51;2.87;;;1.70;;
1370;SDS011;14306;49.942;11.570;2023-08-07T13:43:19;1.40;;;1.07;;
1370;SDS011;14306;49.942;11.570;2023-08-07T13:45:47;3.50;;;1.07;;
1370;SDS011;14306;49.942;11.570;2023-08-07T13:48:17;3.23;;;1.07;;
1370;SDS011;14306;49.942;11.570;2023-08-07T13:50:47;1.30;;;1.03;;
1370;SDS011;14306;49.942;11.570;2023-08-07T13:53:15;3.63;;;2.30;;
1370;SDS011;14306;49.942;11.570;2023-08-07T13:55:44;1.37;;;1.00;;
1370;SDS011;14306;49.942;11.570;2023-08-07T13:58:12;1.43;;;1.33;;
1370;SDS011;14306;49.942;11.570;2023-08-07T14:00:42;2.17;;;1.60;;
1370;SDS011;14306;49.942;11.570;2023-08-07T14:03:10;2.40;;;2.07;;
1370;SDS011;14306;49.942;11.570;2023-08-07T14:05:39;1.80;;;1.47;;
1370;SDS011;14306;49.942;11.570;2023-08-07T14:08:09;5.17;;;1.50;;
1370;SDS011;14306;49.942;11.570;2023-08-07T14:10:37;2.60;;;1.50;;
1370;SDS011;14306;49.942;11.570;2023-08-07T14:13:08;2.13;;;1.90;;
1370;SDS011;14306;49.942;11.570;2023-08-07T14:15:38;3.63;;;1.67;;
1370;SDS011;14306;49.942;11.570;2023-08-07T14:18:06;4.60;;;1.43;;
1370;SDS011;14306;49.942;11.570;2023-08-07T14:20:34;1.60;;;1.30;;
1370;SDS011;14306;49.942;11.570;2023-08-07T14:23:23;6.20;;;1.93;;
1370;SDS011;14306;49.942;11.570;2023-08-07T14:25:51;1.60;;;1.20;;
1370;SDS011;14306;49.942;11.570;2023-08-07T14:28:19;2.23;;;1.30;;
1370;SDS011;14306;49.942;11.570;2023-08-07T14:30:48;2.13;;;1.20;;
1370;SDS011;14306;49.942;11.570;2023-08-07T14:33:16;1.33;;;1.23;;
1370;SDS011;14306;49.942;11.570;2023-08-07T14:35:46;1.50;;;1.40;;
1370;SDS011;14306;49.942;11.570;2023-08-07T14:38:14;1.43;;;1.33;;
1370;SDS011;14306;49.942;11.570;2023-08-07T14:40:43;2.60;;;1.90;;
1370;SDS011;14306;49.942;11.570;2023-08-07T14:43:12;1.73;;;1.50;;
1370;SDS011;14306;49.942;11.570;2023-08-07T14:45:40;1.47;;;1.37;;
1370;SDS011;14306;49.942;11.570;2023-08-07T14:48:08;2.03;;;1.37;;
1370;SDS011;14306;49.942;11.570;2023-08-07T14:50:37;2.23;;;1.67;;
1370;SDS011;14306;49.942;11.570;2023-08-07T14:53:05;2.03;;;1.83;;
1370;SDS011;14306;49.942;11.570;2023-08-07T14:55:33;2.43;;;1.40;;
1370;SDS011;14306;49.942;11.570;2023-08-07T14:58:03;5.93;;;1.60;;
1370;SDS011;14306;49.942;11.570;2023-08-07T15:00:31;2.37;;;1.90;;
1370;SDS011;14306;49.942;11.570;2023-08-07T15:03:00;1.77;;;1.30;;